Share

Hoffman, MN

Gardonville Co-op Telephone Assn (KMNBRAND2) Elev 1411 ft | 45.96 °N, 95.60 °W | Change Station

Current weather conditions updated 0 second ago

Clear
Clear
66.4 °F
Feels Like 66.4 °F
N
1.0
Wind Variable Wind from SE
Gusts 4.0 mph
Sunrise 6:28 AM
Sunset 8:16 PM
Moon Waning Gibbous

Today is forecast to be Warmer than yesterday.

Pressure 29.99 in
Visibility 10.0 miles
Clouds Clear
Dew Point 35 °F
Humidity 31%
Rainfall 0.00 in
Snow Depth Not available.
UV 9 out of 16
Pollen 10.30 out of 12
Air Quality Not available.
Flu Activity Sporadic
METAR KY63 201853Z AUTO 17005KT 10SM CLR 21/01 A2999 RMK AO2 T02100014

More Conditions Fewer Conditions

Pressure 29.99 in
Visibility 10.0 miles
Clouds Clear
Dew Point 35 °F
Humidity 31%
Rainfall 0.00 in
Snow Depth Not available.
UV 9 out of 16
Pollen 10.30 out of 12
Air Quality Not available.
Flu Activity Sporadic
METAR KY63 201853Z AUTO 17005KT 10SM CLR 21/01 A2999 RMK AO2 T02100014

More Conditions Fewer Conditions

10-Day Weather Forecast

Almanac

Astronomy

Apr. 20, 2014 Rise Set
Actual Time 6:28 AM CDT 8:16 PM CDT
Civil Twilight 5:56 AM CDT 8:48 PM CDT
Nautical Twilight 5:18 AM CDT 9:27 PM CDT
Astronomical Twilight 4:35 AM CDT 10:09 PM CDT
Moon 1:03 AM CDT 10:43 AM CDT
Length of Visible Light 14h 51m
Length of Day
13h 48m
Tomorrow will be 3m 1s longer.
Waning Gibbous, 67% of the Moon is Illuminated
Today
Waning Gibbous
Apr 22
Last Quarter
Apr 29
New
May 6
First Quarter
May 14
Full

Today's Extremes

State Highs State Lows

Community

  • Morning Sun
    Morning Sun
  • after rain
    after rain
  • Columbine
    Columbine
  • Easter Sunrise
    Easter Sunrise
  • Easter Eve - The Promise - Lake Palestine, TX
    Easter Eve - The Promise - Lake Palestine, TX

WunderPhotos

Upload Photos

1,703,311 photos uploaded!

WunderBlogs® & News

Nearby

Snow Depth

Station Depth Elevation
No new snow has been reported.

Coastal Water Temperatures

Place Temperature
No Stations Reporting

Earthquake Activity

City Distance Mag. Time & Date
No recent earthquake activity has been reported nearby.
Minimum magnitude displayed is 2.5.

Nearby Weather Stations

Station Location Temp. Dew Point Humidity Wind Precip. Elev Updated Type
Gardonville Co-op Telephone Assn, Brandon, MN 66.4 °F 35 °F 31% SE  at  1.0 mph 0.00 in / hr 1411 ft 2:06 PM CDT Rapid Fire
KMGK (Magic 107.1) FM, Glenwood, MN 69.0 °F 40 °F 35% West  at  4.0 mph 0.00 in / hr 1168 ft 2:06 PM CDT Rapid Fire

Show More Stations Show Fewer Stations

What do you think?

We're not finished. Please let us know what you like, what you don't like, and what you are still missing.